Time;durP1;ratioP1;P1;durP2;ratioP2;P2;SDS_P1;SDS_P2;PMS_P1;PMS_P2;Temp;Humidity;BMP_temperature;BMP_pressure;BME280_temperature;BME280_humidity;BME280_pressure;Samples;Min_cycle;Max_cycle;Signal;HPM_P1;HPM_P2
2022/08/30 00:02:44;;;;;;;17.75;8.80;;;15.70;99.90;;;;;;5018810;28;20045;-63
2022/08/30 00:05:10;;;;;;;16.58;10.25;;;15.70;99.90;;;;;;5019385;28;20050;-63
2022/08/30 00:07:36;;;;;;;17.25;9.68;;;15.60;99.90;;;;;;5007114;28;20117;-62
2022/08/30 00:10:03;;;;;;;19.33;9.68;;;15.60;99.90;;;;;;5006764;28;20100;-64
2022/08/30 00:12:30;;;;;;;20.17;9.85;;;15.60;99.90;;;;;;5019452;28;20068;-63
2022/08/30 00:14:56;;;;;;;23.63;9.35;;;15.60;99.90;;;;;;5010366;28;20575;-62
2022/08/30 00:17:21;;;;;;;18.65;10.30;;;15.60;99.90;;;;;;5009508;28;20108;-63
2022/08/30 00:19:47;;;;;;;16.55;9.32;;;15.60;99.90;;;;;;5007474;28;20468;-63
2022/08/30 00:22:13;;;;;;;17.30;9.95;;;15.60;99.90;;;;;;5016872;28;20041;-63
2022/08/30 00:24:38;;;;;;;16.35;10.00;;;15.50;99.90;;;;;;5007624;28;20037;-63
2022/08/30 00:27:04;;;;;;;14.45;9.05;;;15.50;99.90;;;;;;5008063;28;20033;-63
2022/08/30 00:29:29;;;;;;;14.55;8.77;;;15.40;99.90;;;;;;5009077;28;20037;-64
2022/08/30 00:31:55;;;;;;;16.17;9.25;;;15.40;99.90;;;;;;5010583;28;20041;-62
2022/08/30 00:34:21;;;;;;;26.23;9.60;;;15.40;99.90;;;;;;5011834;28;20034;-63
2022/08/30 00:36:46;;;;;;;18.50;9.50;;;15.40;99.90;;;;;;5007114;28;20105;-63
2022/08/30 00:39:12;;;;;;;18.65;9.32;;;15.40;99.90;;;;;;5013614;28;20052;-63
2022/08/30 00:41:38;;;;;;;16.98;9.15;;;15.40;99.90;;;;;;5009637;28;20033;-61
2022/08/30 00:44:04;;;;;;;18.85;9.30;;;15.30;99.90;;;;;;5007070;28;20042;-63
2022/08/30 00:46:31;;;;;;;16.92;9.05;;;15.30;99.90;;;;;;5015773;28;20100;-63
2022/08/30 00:49:08;;;;;;;18.48;9.25;;;15.30;99.90;;;;;;5021367;28;20022;-62
2022/08/30 00:51:34;;;;;;;19.13;9.55;;;15.30;99.90;;;;;;5007588;28;20432;-64
2022/08/30 00:54:00;;;;;;;16.45;9.75;;;15.20;99.90;;;;;;5016652;28;20129;-63
2022/08/30 00:56:28;;;;;;;14.57;9.30;;;15.20;99.90;;;;;;5007565;28;20045;-61
2022/08/30 00:58:57;;;;;;;15.52;9.40;;;15.30;99.90;;;;;;5008788;28;20603;-61
2022/08/30 01:01:24;;;;;;;20.98;9.32;;;15.20;99.90;;;;;;5009094;28;20053;-63
2022/08/30 01:03:50;;;;;;;17.02;9.57;;;15.20;99.90;;;;;;5008384;28;20500;-63
2022/08/30 01:06:16;;;;;;;14.30;9.10;;;15.20;99.90;;;;;;5006228;28;20072;-63
2022/08/30 01:08:43;;;;;;;16.58;9.35;;;15.30;99.90;;;;;;5006859;28;20053;-63
2022/08/30 01:11:11;;;;;;;17.55;9.07;;;15.30;99.90;;;;;;5015337;28;20083;-63
2022/08/30 01:13:37;;;;;;;17.10;9.80;;;15.10;99.90;;;;;;5009407;28;20045;-63
2022/08/30 01:16:03;;;;;;;15.13;9.23;;;15.10;99.90;;;;;;5007457;28;20037;-63
2022/08/30 01:18:30;;;;;;;18.05;9.68;;;15.00;99.90;;;;;;5008768;28;20062;-62
2022/08/30 01:21:14;;;;;;;17.95;9.82;;;15.00;99.90;;;;;;5000956;28;20100;-61
2022/08/30 01:23:43;;;;;;;15.30;9.27;;;15.00;99.90;;;;;;5006233;28;20044;-62
2022/08/30 01:26:09;;;;;;;17.20;10.15;;;14.90;99.90;;;;;;5007939;28;20034;-63
2022/08/30 01:28:36;;;;;;;14.88;9.23;;;14.90;99.90;;;;;;5005840;28;20448;-63
2022/08/30 01:31:02;;;;;;;17.48;9.50;;;14.90;99.90;;;;;;5008223;28;20116;-63
2022/08/30 01:33:28;;;;;;;19.45;9.30;;;14.90;99.90;;;;;;5008074;28;20052;-63
2022/08/30 01:36:00;;;;;;;16.98;9.05;;;14.80;99.90;;;;;;5007003;28;20034;-63
2022/08/30 01:38:38;;;;;;;13.45;8.45;;;14.70;99.90;;;;;;5005885;28;20029;-63
2022/08/30 01:41:24;;;;;;;14.38;8.18;;;14.80;99.90;;;;;;4990801;28;20803;-63
2022/08/30 01:43:52;;;;;;;18.25;9.13;;;14.70;99.90;;;;;;5019934;28;20125;-63
2022/08/30 01:46:20;;;;;;;14.25;8.40;;;14.70;99.90;;;;;;5004768;28;20101;-63
2022/08/30 01:48:46;;;;;;;17.13;9.02;;;14.70;99.90;;;;;;5008402;28;20029;-63
2022/08/30 01:51:13;;;;;;;16.88;9.55;;;14.60;99.90;;;;;;5010482;28;20527;-62
2022/08/30 01:53:41;;;;;;;17.33;10.00;;;14.50;99.90;;;;;;5010705;28;20049;-63
2022/08/30 01:56:07;;;;;;;14.13;9.23;;;14.50;99.90;;;;;;5014374;28;20034;-63
2022/08/30 01:58:35;;;;;;;15.45;8.85;;;14.50;99.90;;;;;;5009994;28;20384;-63
2022/08/30 02:01:02;;;;;;;20.48;10.10;;;14.50;99.90;;;;;;5008073;28;20944;-63
2022/08/30 02:03:31;;;;;;;15.95;9.60;;;14.50;99.90;;;;;;5012760;28;20038;-62
2022/08/30 02:06:02;;;;;;;16.63;9.85;;;14.50;99.90;;;;;;5016632;28;20033;-63
2022/08/30 02:08:28;;;;;;;17.77;9.55;;;14.60;99.90;;;;;;5012216;28;20108;-61
2022/08/30 02:10:54;;;;;;;15.27;8.93;;;14.60;99.90;;;;;;5018107;28;20042;-62
2022/08/30 02:13:19;;;;;;;14.52;8.80;;;14.50;99.90;;;;;;5012227;28;20048;-62
2022/08/30 02:15:45;;;;;;;17.48;9.00;;;14.50;99.90;;;;;;5014848;28;20029;-62
2022/08/30 02:18:11;;;;;;;15.30;8.90;;;14.50;99.90;;;;;;5013490;28;20034;-63
2022/08/30 02:20:39;;;;;;;17.05;9.38;;;14.50;99.90;;;;;;5011302;28;20025;-63
2022/08/30 02:23:04;;;;;;;17.08;9.98;;;14.40;99.90;;;;;;5009880;28;20512;-61
2022/08/30 02:25:30;;;;;;;18.38;9.35;;;14.40;99.90;;;;;;5012975;28;20026;-61
2022/08/30 02:27:56;;;;;;;15.60;9.30;;;14.40;99.90;;;;;;5016778;28;20480;-61
2022/08/30 02:30:21;;;;;;;15.63;8.80;;;14.30;99.90;;;;;;5012440;28;20048;-62
2022/08/30 02:32:47;;;;;;;22.20;9.25;;;14.30;99.90;;;;;;5012109;28;20057;-63
2022/08/30 02:35:13;;;;;;;17.13;9.05;;;14.20;99.90;;;;;;5011721;28;20034;-63
2022/08/30 02:37:38;;;;;;;17.05;10.35;;;14.30;99.90;;;;;;5012039;28;20441;-64
2022/08/30 02:40:06;;;;;;;20.17;9.48;;;14.30;99.90;;;;;;5011781;28;20524;-63
2022/08/30 02:42:32;;;;;;;18.40;9.23;;;14.30;99.90;;;;;;5032543;28;20037;-62
2022/08/30 02:44:59;;;;;;;14.82;8.73;;;14.30;99.90;;;;;;5030374;28;20019;-63
2022/08/30 02:47:24;;;;;;;20.60;10.00;;;14.20;99.90;;;;;;5008682;28;20034;-62
2022/08/30 02:49:50;;;;;;;17.75;9.20;;;14.20;99.90;;;;;;5018029;28;20385;-62
2022/08/30 02:52:16;;;;;;;15.57;8.80;;;14.10;99.90;;;;;;5011273;28;20038;-62
2022/08/30 02:54:41;;;;;;;23.58;10.15;;;14.10;99.90;;;;;;5011868;28;20042;-63
2022/08/30 02:57:07;;;;;;;17.90;8.45;;;14.10;99.90;;;;;;5009492;28;20516;-63
2022/08/30 02:59:36;;;;;;;20.92;9.35;;;14.00;99.90;;;;;;5011489;28;20469;-61
2022/08/30 03:02:02;;;;;;;15.25;8.57;;;14.00;99.90;;;;;;5010768;28;20117;-63
2022/08/30 03:04:28;;;;;;;14.30;8.40;;;14.10;99.90;;;;;;5013454;28;20578;-63
2022/08/30 03:06:54;;;;;;;21.52;9.05;;;14.10;99.90;;;;;;5007255;28;20030;-63
2022/08/30 03:09:21;;;;;;;15.68;8.93;;;14.10;99.90;;;;;;5008136;28;20029;-63
2022/08/30 03:11:46;;;;;;;14.80;8.23;;;14.10;99.90;;;;;;5004751;28;20373;-63
2022/08/30 03:14:12;;;;;;;14.40;8.75;;;14.10;99.90;;;;;;5009618;28;20041;-63
2022/08/30 03:16:38;;;;;;;15.82;9.27;;;14.00;99.90;;;;;;5022608;28;20095;-63
2022/08/30 03:19:03;;;;;;;12.90;8.38;;;14.00;99.90;;;;;;5028716;28;20034;-63
2022/08/30 03:21:29;;;;;;;14.93;8.35;;;13.90;99.90;;;;;;5018878;28;20089;-62
2022/08/30 03:23:55;;;;;;;15.27;9.10;;;14.00;99.90;;;;;;5018392;28;20029;-63
2022/08/30 03:26:20;;;;;;;18.92;9.50;;;14.10;99.90;;;;;;5022368;28;20022;-62
2022/08/30 03:28:46;;;;;;;26.83;9.07;;;14.00;99.90;;;;;;5020751;28;20076;-64
2022/08/30 03:31:12;;;;;;;16.08;8.77;;;14.00;99.90;;;;;;5010401;28;20427;-63
2022/08/30 03:33:39;;;;;;;16.38;9.00;;;14.00;99.90;;;;;;5006437;28;20130;-63
2022/08/30 03:36:06;;;;;;;23.02;8.60;;;14.00;99.90;;;;;;5008384;28;20052;-63
2022/08/30 03:38:32;;;;;;;12.88;8.45;;;13.90;99.90;;;;;;5021148;28;20041;-63
2022/08/30 03:40:57;;;;;;;16.42;8.35;;;13.90;99.90;;;;;;4992011;28;20030;-63
2022/08/30 03:43:23;;;;;;;16.60;9.45;;;13.90;99.90;;;;;;5010388;28;20117;-61
2022/08/30 03:45:49;;;;;;;19.67;8.52;;;13.80;99.90;;;;;;5008809;28;20030;-63
2022/08/30 03:48:14;;;;;;;15.52;9.55;;;13.80;99.90;;;;;;5026403;28;20060;-62
2022/08/30 03:50:40;;;;;;;16.85;9.00;;;13.80;99.90;;;;;;5024113;28;20033;-62
2022/08/30 03:53:06;;;;;;;17.83;9.07;;;13.80;99.90;;;;;;5010482;28;20025;-63
2022/08/30 03:55:32;;;;;;;17.17;8.75;;;13.80;99.90;;;;;;5008727;28;20038;-63
2022/08/30 03:57:57;;;;;;;15.48;9.05;;;13.70;99.90;;;;;;4989700;28;20153;-63
2022/08/30 04:00:23;;;;;;;16.35;8.90;;;13.70;99.90;;;;;;5010973;28;20025;-63
2022/08/30 04:02:48;;;;;;;15.73;8.80;;;13.60;99.90;;;;;;5005409;28;20038;-64
2022/08/30 04:05:14;;;;;;;16.35;8.93;;;13.50;99.90;;;;;;5012577;28;20076;-62
2022/08/30 04:07:40;;;;;;;17.30;9.65;;;13.40;99.90;;;;;;5010820;28;20147;-63
2022/08/30 04:10:08;;;;;;;19.33;8.95;;;13.40;99.90;;;;;;4990975;28;20037;-63
2022/08/30 04:12:34;;;;;;;26.73;9.02;;;13.40;99.90;;;;;;5012665;28;20034;-62
2022/08/30 04:15:00;;;;;;;14.27;8.98;;;13.40;99.90;;;;;;5025073;28;20045;-63
2022/08/30 04:17:26;;;;;;;18.17;9.65;;;13.40;99.90;;;;;;5030825;28;20033;-63
2022/08/30 04:19:52;;;;;;;16.95;9.68;;;13.40;99.90;;;;;;5010752;28;20072;-62
2022/08/30 04:22:18;;;;;;;18.48;9.20;;;13.30;99.90;;;;;;5010367;28;20113;-64
2022/08/30 04:24:43;;;;;;;15.40;8.93;;;13.30;99.90;;;;;;5012333;28;20464;-62
2022/08/30 04:27:09;;;;;;;15.32;9.00;;;13.40;99.90;;;;;;5009275;28;20029;-63
2022/08/30 04:29:35;;;;;;;17.05;9.32;;;13.40;99.90;;;;;;5009527;28;20417;-63
2022/08/30 04:32:01;;;;;;;16.50;9.35;;;13.40;99.90;;;;;;5019733;28;20121;-62
2022/08/30 04:34:27;;;;;;;16.83;9.48;;;13.50;99.90;;;;;;5012122;28;20042;-62
2022/08/30 04:36:52;;;;;;;16.75;9.05;;;13.50;99.90;;;;;;5008491;28;20030;-63
2022/08/30 04:39:18;;;;;;;18.20;9.85;;;13.60;99.90;;;;;;5028523;28;20026;-62
2022/08/30 04:41:44;;;;;;;17.20;10.07;;;13.60;99.90;;;;;;5026131;28;20045;-62
2022/08/30 04:44:09;;;;;;;15.30;9.68;;;13.60;99.90;;;;;;5008155;28;20034;-62
2022/08/30 04:46:36;;;;;;;20.55;11.20;;;13.60;99.90;;;;;;5016971;28;20148;-63
2022/08/30 04:49:03;;;;;;;19.33;11.10;;;13.60;99.90;;;;;;5009275;28;20062;-63
2022/08/30 04:51:30;;;;;;;19.75;11.25;;;13.60;99.90;;;;;;5006888;28;20084;-62
2022/08/30 04:53:55;;;;;;;18.48;11.07;;;13.70;99.90;;;;;;5008325;28;20099;-64
2022/08/30 04:56:23;;;;;;;19.20;10.70;;;13.70;99.90;;;;;;5017443;28;20041;-64
2022/08/30 04:58:51;;;;;;;22.95;10.35;;;13.70;99.90;;;;;;4989784;28;20025;-65
2022/08/30 05:01:20;;;;;;;18.27;9.90;;;13.80;99.90;;;;;;5005150;28;20063;-63
2022/08/30 05:03:47;;;;;;;18.48;9.60;;;13.80;99.90;;;;;;5009417;28;20045;-62
2022/08/30 05:06:14;;;;;;;16.92;9.50;;;13.60;99.90;;;;;;5009143;28;20025;-63
2022/08/30 05:08:39;;;;;;;19.35;9.80;;;13.60;99.90;;;;;;5009722;28;20064;-63
2022/08/30 05:11:06;;;;;;;20.27;10.02;;;13.50;99.90;;;;;;5007383;28;20089;-63
2022/08/30 05:13:34;;;;;;;23.63;10.65;;;13.50;99.90;;;;;;5008931;28;20034;-64
2022/08/30 05:16:00;;;;;;;18.20;9.73;;;13.50;99.90;;;;;;5008496;28;20072;-64
2022/08/30 05:18:25;;;;;;;24.98;10.23;;;13.50;99.90;;;;;;5009786;28;20034;-63
2022/08/30 05:21:03;;;;;;;18.67;9.68;;;13.60;99.90;;;;;;5024019;28;20036;-66
2022/08/30 05:23:29;;;;;;;17.73;10.07;;;13.60;99.90;;;;;;5020455;28;20041;-63
2022/08/30 05:25:54;;;;;;;18.50;9.35;;;13.70;99.90;;;;;;5007289;28;20042;-62
2022/08/30 05:28:20;;;;;;;14.88;9.35;;;13.80;99.90;;;;;;5008657;28;20109;-63
2022/08/30 05:30:46;;;;;;;20.25;10.00;;;13.90;99.90;;;;;;5006943;28;20471;-62
2022/08/30 05:33:12;;;;;;;23.60;9.45;;;13.90;99.90;;;;;;5007213;28;20050;-62
2022/08/30 05:35:39;;;;;;;15.88;9.65;;;14.00;99.90;;;;;;5007998;28;20030;-62
2022/08/30 05:38:05;;;;;;;18.23;9.68;;;14.10;99.90;;;;;;5025498;28;20045;-62
2022/08/30 05:40:30;;;;;;;13.57;8.80;;;14.30;99.90;;;;;;5021661;28;20040;-62
2022/08/30 05:42:56;;;;;;;13.48;8.65;;;14.50;99.90;;;;;;5017421;28;20030;-63
2022/08/30 05:45:22;;;;;;;18.30;9.25;;;14.60;99.90;;;;;;5008769;28;20465;-62
2022/08/30 05:47:47;;;;;;;14.85;9.18;;;14.70;99.90;;;;;;5029217;28;20444;-63
2022/08/30 05:50:13;;;;;;;18.00;9.10;;;14.90;99.90;;;;;;5026959;28;20908;-63
2022/08/30 05:52:42;;;;;;;16.58;8.98;;;15.00;99.90;;;;;;5015187;28;20037;-63
2022/08/30 05:55:08;;;;;;;19.02;9.45;;;15.30;99.90;;;;;;5008666;28;20041;-62
2022/08/30 05:57:36;;;;;;;18.80;9.38;;;15.50;99.90;;;;;;5006921;28;20418;-64
2022/08/30 06:00:13;;;;;;;19.77;9.55;;;15.60;99.90;;;;;;5012868;28;20030;-63
2022/08/30 06:02:39;;;;;;;15.85;9.25;;;15.60;99.90;;;;;;5005406;28;20035;-63
2022/08/30 06:05:06;;;;;;;18.00;9.20;;;15.50;99.90;;;;;;5007031;28;20080;-63
2022/08/30 06:07:31;;;;;;;21.40;10.65;;;15.50;99.90;;;;;;5019250;28;20060;-63
2022/08/30 06:09:57;;;;;;;16.23;8.98;;;15.60;99.90;;;;;;5018581;28;20061;-63
2022/08/30 06:12:22;;;;;;;22.77;10.07;;;15.70;99.90;;;;;;5025348;28;20088;-62
2022/08/30 06:14:48;;;;;;;17.52;9.30;;;15.70;99.90;;;;;;5007336;28;20085;-63
2022/08/30 06:17:14;;;;;;;18.77;9.25;;;15.70;99.90;;;;;;5022582;28;20037;-62
2022/08/30 06:19:39;;;;;;;17.58;9.05;;;15.90;99.90;;;;;;5021316;28;20603;-64
2022/08/30 06:22:05;;;;;;;14.23;8.63;;;16.00;99.90;;;;;;4990977;28;20060;-62
2022/08/30 06:24:31;;;;;;;16.05;9.50;;;16.20;99.90;;;;;;5007824;28;20045;-63
2022/08/30 06:26:56;;;;;;;16.92;8.77;;;16.30;99.90;;;;;;5015364;28;20037;-64
2022/08/30 06:29:22;;;;;;;18.95;8.68;;;16.40;99.90;;;;;;5007464;28;20040;-63
2022/08/30 06:31:48;;;;;;;19.92;9.38;;;16.50;99.90;;;;;;5017220;28;20042;-63
2022/08/30 06:34:15;;;;;;;14.90;8.95;;;16.60;99.90;;;;;;5007332;28;20046;-62
2022/08/30 06:36:41;;;;;;;16.20;8.77;;;16.80;99.90;;;;;;5009335;28;20366;-64
2022/08/30 06:39:08;;;;;;;19.15;9.73;;;16.90;99.90;;;;;;5005733;28;20026;-62
2022/08/30 06:41:37;;;;;;;19.67;9.65;;;17.10;99.90;;;;;;5008395;28;20026;-62
2022/08/30 06:44:04;;;;;;;15.57;9.53;;;17.30;99.90;;;;;;5010468;28;20029;-63
2022/08/30 06:46:33;;;;;;;15.90;8.98;;;17.50;99.90;;;;;;5010668;28;20065;-63
2022/08/30 06:48:59;;;;;;;14.98;8.73;;;17.70;99.90;;;;;;5007488;28;20025;-62
2022/08/30 06:51:29;;;;;;;15.98;9.00;;;17.80;99.90;;;;;;5012236;28;20469;-62
2022/08/30 06:53:55;;;;;;;20.55;9.60;;;18.00;99.90;;;;;;5010827;28;20487;-62
2022/08/30 06:56:22;;;;;;;18.15;8.80;;;18.10;99.90;;;;;;5012292;28;20034;-62
2022/08/30 06:58:48;;;;;;;14.18;9.20;;;18.40;99.90;;;;;;4988350;28;20058;-60
2022/08/30 07:01:19;;;;;;;21.98;9.73;;;18.50;99.90;;;;;;4991727;28;20042;-62
2022/08/30 07:03:46;;;;;;;18.70;9.63;;;18.60;99.90;;;;;;5003939;28;20026;-63
2022/08/30 07:06:12;;;;;;;17.15;9.57;;;18.70;99.90;;;;;;5014419;28;20060;-62
2022/08/30 07:08:39;;;;;;;17.73;8.90;;;18.90;99.90;;;;;;5017404;28;20026;-62
2022/08/30 07:11:06;;;;;;;19.63;9.82;;;18.90;99.90;;;;;;5010023;28;20028;-62
2022/08/30 07:13:33;;;;;;;21.85;9.82;;;19.10;99.90;;;;;;5009143;28;20065;-63
2022/08/30 07:15:58;;;;;;;16.48;9.15;;;19.20;99.90;;;;;;5014276;28;20063;-63
2022/08/30 07:21:11;;;;;;;19.60;9.60;;;19.50;99.90;;;;;;4991412;28;20057;-62
2022/08/30 07:23:37;;;;;;;16.23;9.00;;;19.60;99.90;;;;;;5022350;28;20029;-62
2022/08/30 07:26:05;;;;;;;17.05;9.30;;;19.70;99.90;;;;;;5016406;28;20487;-63
2022/08/30 07:28:32;;;;;;;15.23;9.40;;;19.90;99.90;;;;;;5009652;28;20058;-63
2022/08/30 07:30:58;;;;;;;16.85;9.77;;;20.00;99.90;;;;;;5009682;28;20037;-63
2022/08/30 07:33:23;;;;;;;14.85;9.00;;;20.20;99.90;;;;;;5011238;28;20066;-62
2022/08/30 07:35:49;;;;;;;13.95;8.75;;;20.30;99.90;;;;;;5010513;28;20053;-62
2022/08/30 07:38:15;;;;;;;16.63;9.07;;;20.40;99.90;;;;;;5009408;28;20030;-62
2022/08/30 07:40:41;;;;;;;19.25;9.95;;;20.60;99.90;;;;;;5028075;28;20103;-61
2022/08/30 07:43:06;;;;;;;21.33;9.43;;;20.70;99.90;;;;;;5023118;28;20069;-63
2022/08/30 07:45:32;;;;;;;20.33;8.95;;;20.80;99.90;;;;;;5010998;28;20469;-62
2022/08/30 07:47:58;;;;;;;18.77;10.45;;;21.00;99.90;;;;;;5014364;28;20452;-62
2022/08/30 07:50:24;;;;;;;17.98;9.13;;;21.20;99.90;;;;;;5010235;28;20034;-61
2022/08/30 07:52:50;;;;;;;14.65;8.80;;;21.30;99.90;;;;;;5009054;28;20041;-61
2022/08/30 07:55:15;;;;;;;16.08;8.85;;;21.50;99.90;;;;;;5009398;28;20041;-63
2022/08/30 07:57:41;;;;;;;15.02;9.15;;;21.80;99.90;;;;;;5014419;28;20029;-62
2022/08/30 08:00:08;;;;;;;17.15;8.75;;;22.00;99.90;;;;;;5009075;28;20034;-61
2022/08/30 08:02:35;;;;;;;15.27;8.98;;;22.20;99.90;;;;;;5010980;28;20033;-61
2022/08/30 08:05:00;;;;;;;16.65;9.60;;;22.40;99.90;;;;;;5009028;28;20099;-62
2022/08/30 08:07:26;;;;;;;21.95;9.30;;;22.50;99.90;;;;;;5008713;28;20100;-61
2022/08/30 08:09:52;;;;;;;14.07;8.73;;;22.60;99.90;;;;;;5021139;28;20363;-61
2022/08/30 08:12:17;;;;;;;13.15;8.43;;;22.80;99.90;;;;;;5013068;28;20116;-61
2022/08/30 08:14:43;;;;;;;18.02;8.50;;;23.00;99.90;;;;;;5010167;28;20510;-63
2022/08/30 08:17:09;;;;;;;16.75;7.85;;;23.20;99.90;;;;;;5009495;28;20076;-63
2022/08/30 08:19:34;;;;;;;22.00;7.90;;;23.40;99.90;;;;;;5010955;28;20045;-62
2022/08/30 08:22:01;;;;;;;11.25;7.70;;;23.60;99.90;;;;;;5009421;28;20480;-65
2022/08/30 08:24:27;;;;;;;14.07;8.45;;;23.60;99.90;;;;;;5010731;28;20030;-60
2022/08/30 08:26:53;;;;;;;11.93;8.27;;;23.80;99.90;;;;;;5009372;28;20022;-62
2022/08/30 08:29:20;;;;;;;13.93;8.40;;;23.80;99.90;;;;;;5008887;28;20608;-61
2022/08/30 08:31:45;;;;;;;11.80;8.13;;;23.90;99.90;;;;;;5015580;28;20115;-63
2022/08/30 08:34:12;;;;;;;15.98;7.82;;;23.90;99.90;;;;;;5010962;28;20080;-63
2022/08/30 08:36:39;;;;;;;12.02;8.13;;;24.10;99.90;;;;;;4990889;28;20412;-64
2022/08/30 08:39:06;;;;;;;12.55;8.38;;;24.20;99.90;;;;;;5026143;28;20048;-63
2022/08/30 08:41:48;;;;;;;11.02;7.18;;;24.30;99.90;;;;;;5030241;28;20026;-63
2022/08/30 08:44:30;;;;;;;11.80;7.45;;;24.30;99.90;;;;;;5008827;28;20026;-63
2022/08/30 08:47:23;;;;;;;12.13;7.75;;;24.20;99.90;;;;;;5008160;28;20540;-63
2022/08/30 08:49:53;;;;;;;12.32;7.93;;;24.30;99.90;;;;;;5025289;28;20033;-63
2022/08/30 08:55:14;;;;;;;14.45;7.97;;;24.50;99.90;;;;;;5020123;28;20087;-62
2022/08/30 08:57:41;;;;;;;16.05;8.15;;;24.50;99.90;;;;;;5019933;28;20052;-63
2022/08/30 09:00:11;;;;;;;11.00;8.00;;;24.60;99.90;;;;;;5009312;28;20056;-64
2022/08/30 09:03:08;;;;;;;11.98;7.40;;;24.70;99.90;;;;;;5009094;28;20496;-63
2022/08/30 09:05:38;;;;;;;11.60;6.70;;;24.70;99.90;;;;;;5001161;28;20116;-62
2022/08/30 09:08:09;;;;;;;13.85;7.93;;;24.90;99.90;;;;;;5007300;28;20026;-64
2022/08/30 09:10:35;;;;;;;11.73;7.85;;;25.00;99.90;;;;;;5008051;28;20100;-61
2022/08/30 09:13:01;;;;;;;15.60;7.40;;;25.10;99.90;;;;;;5007949;28;20077;-64
2022/08/30 09:15:31;;;;;;;9.95;7.47;;;25.10;99.90;;;;;;5028675;28;20061;-61
2022/08/30 09:18:03;;;;;;;10.00;7.28;;;25.10;99.90;;;;;;5027443;28;20103;-63
2022/08/30 09:20:40;;;;;;;14.32;7.97;;;25.20;99.90;;;;;;5009338;28;20109;-63
2022/08/30 09:23:15;;;;;;;9.80;7.30;;;25.30;99.90;;;;;;5008024;28;20088;-64
2022/08/30 09:26:05;;;;;;;13.23;7.35;;;25.40;99.90;;;;;;5022388;28;20034;-63
2022/08/30 09:28:49;;;;;;;11.85;7.00;;;25.60;99.90;;;;;;5019539;28;20485;-61
2022/08/30 09:31:23;;;;;;;12.05;7.55;;;25.80;99.90;;;;;;5004876;28;20029;-63
2022/08/30 09:34:06;;;;;;;10.55;7.03;;;25.90;99.90;;;;;;5008684;28;20061;-62
2022/08/30 09:37:00;;;;;;;11.63;7.75;;;26.00;99.90;;;;;;5009229;28;20148;-62
2022/08/30 09:39:32;;;;;;;12.60;7.50;;;25.90;99.90;;;;;;4998792;28;20702;-63
2022/08/30 09:42:19;;;;;;;12.05;7.72;;;25.90;99.60;;;;;;5008184;28;20366;-61
2022/08/30 09:44:46;;;;;;;11.73;7.65;;;26.00;99.60;;;;;;5015739;28;20054;-62
2022/08/30 09:47:23;;;;;;;12.73;7.35;;;26.10;98.90;;;;;;5015287;28;20088;-61
2022/08/30 09:49:49;;;;;;;13.45;7.68;;;26.00;99.90;;;;;;5021504;28;20033;-62
2022/08/30 09:52:40;;;;;;;17.10;8.02;;;26.10;99.40;;;;;;4990186;28;20034;-64
2022/08/30 09:55:08;;;;;;;;;;;26.00;99.80;;;;;;5008037;28;20436;-62
2022/08/30 09:57:47;;;;;;;11.43;7.32;;;26.00;99.90;;;;;;5006626;28;20620;-63
2022/08/30 10:00:17;;;;;;;13.38;7.32;;;26.20;99.90;;;;;;5016796;28;20029;-62
2022/08/30 10:03:05;;;;;;;9.77;6.80;;;26.20;99.90;;;;;;4997022;28;20041;-63
2022/08/30 10:05:54;;;;;;;10.63;7.65;;;26.40;98.50;;;;;;5008685;28;20061;-61
2022/08/30 10:09:00;;;;;;;11.52;7.22;;;26.60;98.60;;;;;;5005803;28;20041;-61
2022/08/30 10:11:38;;;;;;;12.23;7.07;;;26.80;97.50;;;;;;4983538;28;20129;-62
2022/08/30 10:14:14;;;;;;;15.45;8.45;;;26.90;96.20;;;;;;5005577;28;20043;-63
2022/08/30 10:16:51;;;;;;;12.52;6.65;;;26.80;95.30;;;;;;5005622;28;20393;-63
2022/08/30 10:19:22;;;;;;;11.05;7.57;;;26.80;95.20;;;;;;5011359;28;20110;-61
2022/08/30 10:22:02;;;;;;;9.80;7.13;;;26.90;95.00;;;;;;5006785;28;20160;-63
2022/08/30 10:24:36;;;;;;;10.50;6.78;;;26.90;94.80;;;;;;5011083;28;20279;-65
2022/08/30 10:27:25;;;;;;;10.65;6.90;;;26.90;93.10;;;;;;4993791;28;20062;-63
2022/08/30 10:30:01;;;;;;;11.75;6.93;;;27.00;94.30;;;;;;5005678;28;20472;-63
2022/08/30 10:32:50;;;;;;;11.38;7.25;;;27.30;94.00;;;;;;5020524;28;20650;-62
2022/08/30 10:35:28;;;;;;;10.20;7.53;;;27.30;93.80;;;;;;5008410;28;20041;-64
2022/08/30 10:37:56;;;;;;;9.38;7.05;;;27.30;93.10;;;;;;5007344;28;20022;-62
2022/08/30 10:43:42;;;;;;;12.13;6.43;;;27.30;91.30;;;;;;5012254;28;20045;-62
2022/08/30 10:46:34;;;;;;;11.63;6.85;;;27.20;90.10;;;;;;5006275;28;20026;-66
2022/08/30 10:49:10;;;;;;;10.55;7.57;;;26.80;89.50;;;;;;5018580;28;20033;-62
2022/08/30 10:51:51;;;;;;;12.95;7.68;;;26.90;91.30;;;;;;5032709;28;20118;-62
2022/08/30 10:54:31;;;;;;;13.90;7.07;;;27.20;91.80;;;;;;5008428;28;20056;-63
2022/08/30 10:56:57;;;;;;;11.80;6.60;;;27.50;91.70;;;;;;5009323;28;20168;-61
2022/08/30 10:59:26;;;;;;;10.60;6.97;;;27.70;89.50;;;;;;5010791;28;20033;-62
2022/08/30 11:02:33;;;;;;;10.02;6.60;;;27.40;86.60;;;;;;5024623;28;20030;-63
2022/08/30 11:05:36;;;;;;;10.07;6.50;;;27.20;87.60;;;;;;4928475;28;20046;-62
2022/08/30 11:08:20;;;;;;;13.02;6.97;;;26.70;88.60;;;;;;5013347;28;20029;-63
2022/08/30 11:10:55;;;;;;;13.90;7.30;;;26.40;91.10;;;;;;5032252;28;20022;-63
2022/08/30 11:13:34;;;;;;;14.35;8.00;;;26.30;91.80;;;;;;5011151;28;20046;-63
2022/08/30 11:16:14;;;;;;;11.10;7.10;;;26.20;91.40;;;;;;5011111;28;20469;-63
2022/08/30 11:18:55;;;;;;;13.20;7.35;;;26.20;92.60;;;;;;5025240;28;20079;-63
2022/08/30 11:21:35;;;;;;;9.27;6.57;;;26.70;92.20;;;;;;5017521;28;20045;-64
2022/08/30 11:24:02;;;;;;;7.57;5.97;;;27.50;90.40;;;;;;4998333;28;20117;-61
2022/08/30 11:26:56;;;;;;;8.35;6.60;;;28.10;88.70;;;;;;5011865;28;20037;-63
2022/08/30 11:29:28;;;;;;;11.35;6.95;;;28.90;88.40;;;;;;5018041;28;20041;-63
2022/08/30 11:31:56;;;;;;;10.32;6.97;;;29.20;84.10;;;;;;5010618;28;20704;-63
2022/08/30 11:34:43;;;;;;;8.48;6.63;;;29.20;85.00;;;;;;5008503;28;20050;-64
2022/08/30 11:37:29;;;;;;;8.25;6.22;;;28.90;83.80;;;;;;5008661;28;20030;-63
2022/08/30 11:39:58;;;;;;;11.30;6.18;;;28.90;79.80;;;;;;5018178;28;20404;-62
2022/08/30 11:42:34;;;;;;;13.57;6.72;;;28.50;79.60;;;;;;5019812;28;20049;-61
2022/08/30 11:45:22;;;;;;;11.23;6.72;;;28.60;82.50;;;;;;5015436;28;20029;-63
2022/08/30 11:47:52;;;;;;;9.88;6.68;;;28.50;78.90;;;;;;5003284;28;20029;-63
2022/08/30 11:50:32;;;;;;;14.25;6.93;;;28.80;82.30;;;;;;5009258;28;20048;-60
2022/08/30 11:53:22;;;;;;;9.65;6.95;;;29.00;84.20;;;;;;5010615;28;20042;-65
2022/08/30 11:56:11;;;;;;;;;;;28.60;81.60;;;;;;4994022;28;20419;-62
2022/08/30 11:58:49;;;;;;;14.00;7.43;;;28.60;83.30;;;;;;5002400;28;19999;-61
2022/08/30 12:01:27;;;;;;;10.07;6.72;;;28.10;82.60;;;;;;4991405;28;20121;-67
2022/08/30 12:04:01;;;;;;;8.27;6.28;;;28.20;87.20;;;;;;4994520;28;20100;-66
2022/08/30 12:06:39;;;;;;;11.07;6.40;;;28.50;85.50;;;;;;5006946;28;20072;-63
2022/08/30 12:09:11;;;;;;;7.78;6.35;;;28.30;82.00;;;;;;5008746;28;20037;-64
2022/08/30 12:11:37;;;;;;;13.85;7.50;;;28.60;83.80;;;;;;5009914;28;20053;-61
2022/08/30 12:14:05;;;;;;;10.18;6.80;;;29.00;83.90;;;;;;5012751;28;20496;-63
2022/08/30 12:18:26;;;;;;;11.00;6.63;;;29.20;83.70;;;;;;5008631;28;20476;-63
2022/08/30 12:19:25;;;;;;;11.40;6.55;;;29.00;79.20;;;;;;5008421;28;20121;-63
2022/08/30 12:22:00;;;;;;;8.52;6.40;;;28.30;80.60;;;;;;5009903;28;20088;-63
2022/08/30 12:24:48;;;;;;;8.75;6.68;;;28.00;83.40;;;;;;5009201;28;20033;-64
2022/08/30 12:27:31;;;;;;;16.02;7.10;;;28.10;83.40;;;;;;5009160;28;20772;-67
2022/08/30 12:30:05;;;;;;;9.13;6.88;;;28.00;82.60;;;;;;5015560;28;20038;-64
2022/08/30 12:32:31;;;;;;;11.43;7.07;;;27.80;82.60;;;;;;5001296;28;20041;-63
2022/08/30 12:35:05;;;;;;;13.38;6.75;;;27.70;80.20;;;;;;5010977;28;20046;-63
2022/08/30 12:37:32;;;;;;;9.98;6.07;;;27.90;82.90;;;;;;5008687;28;20046;-62
2022/08/30 12:40:15;;;;;;;11.05;6.75;;;27.80;82.00;;;;;;5010378;28;20030;-62
2022/08/30 12:42:50;;;;;;;12.15;6.53;;;27.70;85.40;;;;;;4999400;28;20490;-63
2022/08/30 12:45:21;;;;;;;12.68;6.90;;;28.00;84.40;;;;;;5003152;28;20362;-63
2022/08/30 12:47:49;;;;;;;11.80;6.75;;;27.90;83.70;;;;;;5009085;28;20034;-62
2022/08/30 12:50:27;;;;;;;11.80;7.00;;;27.60;82.80;;;;;;5010028;28;20523;-65
2022/08/30 12:53:06;;;;;;;12.10;7.07;;;27.50;80.70;;;;;;5009341;28;20056;-63
2022/08/30 12:55:47;;;;;;;12.65;7.13;;;27.50;85.00;;;;;;5007523;28;20045;-63
2022/08/30 12:58:14;;;;;;;12.27;6.35;;;27.60;82.20;;;;;;5004981;28;20034;-62
2022/08/30 13:00:48;;;;;;;11.68;7.32;;;27.80;83.90;;;;;;5008241;28;20461;-64
2022/08/30 13:03:38;;;;;;;8.55;6.68;;;28.00;81.50;;;;;;5023118;28;20040;-65